sensor_id;sensor_type;location;lat;lon;timestamp;temperature;humidity
11855;DHT22;5987;53.140;8.904;2023-05-10T00:02:39;16.20;95.10
11855;DHT22;5987;53.140;8.904;2023-05-10T00:05:42;16.20;94.80
11855;DHT22;5987;53.140;8.904;2023-05-10T00:08:47;16.20;94.10
11855;DHT22;5987;53.140;8.904;2023-05-10T00:11:51;16.20;93.60
11855;DHT22;5987;53.140;8.904;2023-05-10T00:14:54;16.20;93.30
11855;DHT22;5987;53.140;8.904;2023-05-10T00:17:58;16.30;93.00
11855;DHT22;5987;53.140;8.904;2023-05-10T00:21:01;16.20;93.10
11855;DHT22;5987;53.140;8.904;2023-05-10T00:24:07;16.20;93.30
11855;DHT22;5987;53.140;8.904;2023-05-10T00:27:10;16.20;93.00
11855;DHT22;5987;53.140;8.904;2023-05-10T00:30:14;16.10;92.80
11855;DHT22;5987;53.140;8.904;2023-05-10T00:33:18;16.20;92.60
11855;DHT22;5987;53.140;8.904;2023-05-10T00:36:21;16.20;92.50
11855;DHT22;5987;53.140;8.904;2023-05-10T00:39:26;16.20;92.50
11855;DHT22;5987;53.140;8.904;2023-05-10T00:42:30;16.10;92.60
11855;DHT22;5987;53.140;8.904;2023-05-10T00:45:36;16.10;92.90
11855;DHT22;5987;53.140;8.904;2023-05-10T00:48:42;16.00;92.60
11855;DHT22;5987;53.140;8.904;2023-05-10T00:51:47;16.00;92.40
11855;DHT22;5987;53.140;8.904;2023-05-10T00:54:53;15.90;92.70
11855;DHT22;5987;53.140;8.904;2023-05-10T00:57:57;15.80;92.90
11855;DHT22;5987;53.140;8.904;2023-05-10T01:01:01;15.80;93.50
11855;DHT22;5987;53.140;8.904;2023-05-10T01:04:05;15.80;93.90
11855;DHT22;5987;53.140;8.904;2023-05-10T01:07:10;15.70;94.20
11855;DHT22;5987;53.140;8.904;2023-05-10T01:10:15;15.50;94.80
11855;DHT22;5987;53.140;8.904;2023-05-10T01:13:30;15.40;95.30
11855;DHT22;5987;53.140;8.904;2023-05-10T01:16:37;15.40;95.70
11855;DHT22;5987;53.140;8.904;2023-05-10T01:19:42;15.40;95.90
11855;DHT22;5987;53.140;8.904;2023-05-10T01:23:25;15.60;95.70
11855;DHT22;5987;53.140;8.904;2023-05-10T01:27:05;15.60;95.70
11855;DHT22;5987;53.140;8.904;2023-05-10T01:34:35;15.40;96.50
11855;DHT22;5987;53.140;8.904;2023-05-10T01:37:50;15.10;97.70
11855;DHT22;5987;53.140;8.904;2023-05-10T01:41:10;14.90;98.70
11855;DHT22;5987;53.140;8.904;2023-05-10T01:44:23;14.90;99.10
11855;DHT22;5987;53.140;8.904;2023-05-10T01:47:35;14.90;99.90
11855;DHT22;5987;53.140;8.904;2023-05-10T01:50:45;14.90;99.90
11855;DHT22;5987;53.140;8.904;2023-05-10T01:53:53;14.80;99.90
11855;DHT22;5987;53.140;8.904;2023-05-10T01:57:05;14.90;99.90
11855;DHT22;5987;53.140;8.904;2023-05-10T02:00:12;14.80;99.90
11855;DHT22;5987;53.140;8.904;2023-05-10T02:03:21;14.90;99.90
11855;DHT22;5987;53.140;8.904;2023-05-10T02:06:28;15.00;99.90
11855;DHT22;5987;53.140;8.904;2023-05-10T02:09:34;15.00;99.90
11855;DHT22;5987;53.140;8.904;2023-05-10T02:12:43;15.00;99.60
11855;DHT22;5987;53.140;8.904;2023-05-10T02:15:49;15.10;99.40
11855;DHT22;5987;53.140;8.904;2023-05-10T02:18:57;15.10;99.20
11855;DHT22;5987;53.140;8.904;2023-05-10T02:22:06;15.10;99.10
11855;DHT22;5987;53.140;8.904;2023-05-10T02:25:14;15.00;99.20
11855;DHT22;5987;53.140;8.904;2023-05-10T02:28:21;15.00;99.20
11855;DHT22;5987;53.140;8.904;2023-05-10T02:31:27;15.10;98.90
11855;DHT22;5987;53.140;8.904;2023-05-10T02:34:31;15.00;99.30
11855;DHT22;5987;53.140;8.904;2023-05-10T02:37:37;15.00;99.50
11855;DHT22;5987;53.140;8.904;2023-05-10T02:40:42;15.00;99.40
11855;DHT22;5987;53.140;8.904;2023-05-10T02:43:47;14.90;99.90
11855;DHT22;5987;53.140;8.904;2023-05-10T02:46:53;14.90;99.90
11855;DHT22;5987;53.140;8.904;2023-05-10T02:49:58;14.90;99.90
11855;DHT22;5987;53.140;8.904;2023-05-10T02:53:09;14.70;99.90
11855;DHT22;5987;53.140;8.904;2023-05-10T02:56:19;14.70;99.90
11855;DHT22;5987;53.140;8.904;2023-05-10T02:59:27;14.70;99.90
11855;DHT22;5987;53.140;8.904;2023-05-10T03:02:31;14.60;99.90
11855;DHT22;5987;53.140;8.904;2023-05-10T03:05:35;14.50;99.90
11855;DHT22;5987;53.140;8.904;2023-05-10T03:08:40;14.50;99.90
11855;DHT22;5987;53.140;8.904;2023-05-10T03:11:52;14.50;99.90
11855;DHT22;5987;53.140;8.904;2023-05-10T03:15:07;14.60;99.90
11855;DHT22;5987;53.140;8.904;2023-05-10T03:18:22;14.60;99.90
11855;DHT22;5987;53.140;8.904;2023-05-10T03:21:31;14.50;99.90
11855;DHT22;5987;53.140;8.904;2023-05-10T03:24:39;14.50;99.90
11855;DHT22;5987;53.140;8.904;2023-05-10T03:27:44;14.50;99.90
11855;DHT22;5987;53.140;8.904;2023-05-10T03:30:49;14.40;99.90
11855;DHT22;5987;53.140;8.904;2023-05-10T03:33:55;14.50;99.90
11855;DHT22;5987;53.140;8.904;2023-05-10T03:36:59;14.40;99.90
11855;DHT22;5987;53.140;8.904;2023-05-10T03:40:05;14.40;99.90
11855;DHT22;5987;53.140;8.904;2023-05-10T03:43:09;14.50;99.90
11855;DHT22;5987;53.140;8.904;2023-05-10T03:46:13;14.50;99.90
11855;DHT22;5987;53.140;8.904;2023-05-10T03:49:16;14.40;99.90
11855;DHT22;5987;53.140;8.904;2023-05-10T03:52:20;14.50;99.90
11855;DHT22;5987;53.140;8.904;2023-05-10T03:55:25;14.40;99.90
11855;DHT22;5987;53.140;8.904;2023-05-10T03:58:28;14.20;99.90
11855;DHT22;5987;53.140;8.904;2023-05-10T04:01:32;14.20;99.90
11855;DHT22;5987;53.140;8.904;2023-05-10T04:04:36;14.20;99.90
11855;DHT22;5987;53.140;8.904;2023-05-10T04:07:39;14.10;99.90
11855;DHT22;5987;53.140;8.904;2023-05-10T04:10:44;14.10;99.90
11855;DHT22;5987;53.140;8.904;2023-05-10T04:13:48;14.20;99.90
11855;DHT22;5987;53.140;8.904;2023-05-10T04:16:51;14.20;99.90
11855;DHT22;5987;53.140;8.904;2023-05-10T04:19:56;14.20;99.90
11855;DHT22;5987;53.140;8.904;2023-05-10T04:22:59;14.10;99.90
11855;DHT22;5987;53.140;8.904;2023-05-10T04:26:04;14.10;99.90
11855;DHT22;5987;53.140;8.904;2023-05-10T04:29:08;14.20;99.90
11855;DHT22;5987;53.140;8.904;2023-05-10T04:32:12;13.90;99.90
11855;DHT22;5987;53.140;8.904;2023-05-10T04:35:15;14.00;99.90
11855;DHT22;5987;53.140;8.904;2023-05-10T04:38:19;14.10;99.90
11855;DHT22;5987;53.140;8.904;2023-05-10T04:41:24;14.00;99.90
11855;DHT22;5987;53.140;8.904;2023-05-10T04:44:28;14.00;99.90
11855;DHT22;5987;53.140;8.904;2023-05-10T04:47:31;13.90;99.90
11855;DHT22;5987;53.140;8.904;2023-05-10T04:50:35;13.90;99.90
11855;DHT22;5987;53.140;8.904;2023-05-10T04:53:39;14.00;99.90
11855;DHT22;5987;53.140;8.904;2023-05-10T04:56:53;13.90;99.90
11855;DHT22;5987;53.140;8.904;2023-05-10T04:59:56;13.70;99.90
11855;DHT22;5987;53.140;8.904;2023-05-10T05:03:00;13.60;99.90
11855;DHT22;5987;53.140;8.904;2023-05-10T05:06:04;13.60;99.90
11855;DHT22;5987;53.140;8.904;2023-05-10T05:09:08;13.50;99.90
11855;DHT22;5987;53.140;8.904;2023-05-10T05:12:13;13.50;99.90
11855;DHT22;5987;53.140;8.904;2023-05-10T05:15:17;13.60;99.90
11855;DHT22;5987;53.140;8.904;2023-05-10T05:18:20;13.40;99.90
11855;DHT22;5987;53.140;8.904;2023-05-10T05:21:24;13.60;99.90
11855;DHT22;5987;53.140;8.904;2023-05-10T05:24:29;13.30;99.90
11855;DHT22;5987;53.140;8.904;2023-05-10T05:27:37;13.20;99.90
11855;DHT22;5987;53.140;8.904;2023-05-10T05:30:41;13.40;99.90
11855;DHT22;5987;53.140;8.904;2023-05-10T05:33:44;13.50;99.90
11855;DHT22;5987;53.140;8.904;2023-05-10T05:36:48;13.50;99.90
11855;DHT22;5987;53.140;8.904;2023-05-10T05:39:52;13.30;99.90
11855;DHT22;5987;53.140;8.904;2023-05-10T05:42:58;13.40;99.90
11855;DHT22;5987;53.140;8.904;2023-05-10T05:46:01;13.30;99.90
11855;DHT22;5987;53.140;8.904;2023-05-10T05:49:05;13.30;99.90
11855;DHT22;5987;53.140;8.904;2023-05-10T05:52:08;13.20;99.90
11855;DHT22;5987;53.140;8.904;2023-05-10T05:55:12;13.10;99.90
11855;DHT22;5987;53.140;8.904;2023-05-10T05:58:18;12.90;99.90
11855;DHT22;5987;53.140;8.904;2023-05-10T06:01:21;12.70;99.90
11855;DHT22;5987;53.140;8.904;2023-05-10T06:04:43;13.00;99.90
11855;DHT22;5987;53.140;8.904;2023-05-10T06:07:47;12.80;99.90
11855;DHT22;5987;53.140;8.904;2023-05-10T06:10:50;13.00;99.90
11855;DHT22;5987;53.140;8.904;2023-05-10T06:13:55;12.90;99.90
11855;DHT22;5987;53.140;8.904;2023-05-10T06:16:59;12.80;99.90
11855;DHT22;5987;53.140;8.904;2023-05-10T06:20:07;12.80;99.90
11855;DHT22;5987;53.140;8.904;2023-05-10T06:23:11;13.00;99.90
11855;DHT22;5987;53.140;8.904;2023-05-10T06:26:15;12.90;99.90
11855;DHT22;5987;53.140;8.904;2023-05-10T06:29:20;12.10;99.90
11855;DHT22;5987;53.140;8.904;2023-05-10T06:32:24;12.80;99.90
11855;DHT22;5987;53.140;8.904;2023-05-10T06:35:28;12.90;99.90
11855;DHT22;5987;53.140;8.904;2023-05-10T06:38:33;12.90;99.90
11855;DHT22;5987;53.140;8.904;2023-05-10T06:41:36;12.70;99.90
11855;DHT22;5987;53.140;8.904;2023-05-10T06:44:41;12.70;99.90
11855;DHT22;5987;53.140;8.904;2023-05-10T06:47:45;12.70;99.90
11855;DHT22;5987;53.140;8.904;2023-05-10T06:50:49;12.50;99.90
11855;DHT22;5987;53.140;8.904;2023-05-10T06:53:52;12.50;99.90
11855;DHT22;5987;53.140;8.904;2023-05-10T06:56:56;12.40;99.90
11855;DHT22;5987;53.140;8.904;2023-05-10T07:00:01;12.30;99.90
11855;DHT22;5987;53.140;8.904;2023-05-10T07:03:07;12.40;99.90
11855;DHT22;5987;53.140;8.904;2023-05-10T07:06:10;12.40;99.90
11855;DHT22;5987;53.140;8.904;2023-05-10T07:09:34;12.30;99.90
11855;DHT22;5987;53.140;8.904;2023-05-10T07:12:37;12.00;99.90
11855;DHT22;5987;53.140;8.904;2023-05-10T07:15:43;12.10;99.90
11855;DHT22;5987;53.140;8.904;2023-05-10T07:18:46;12.10;99.90
11855;DHT22;5987;53.140;8.904;2023-05-10T07:21:52;12.00;99.90
11855;DHT22;5987;53.140;8.904;2023-05-10T07:24:55;11.90;99.90
11855;DHT22;5987;53.140;8.904;2023-05-10T07:27:59;12.10;99.90
11855;DHT22;5987;53.140;8.904;2023-05-10T07:31:04;12.20;99.90
11855;DHT22;5987;53.140;8.904;2023-05-10T07:34:08;12.40;99.90
11855;DHT22;5987;53.140;8.904;2023-05-10T07:37:12;12.50;99.90
11855;DHT22;5987;53.140;8.904;2023-05-10T07:40:16;12.50;99.90
11855;DHT22;5987;53.140;8.904;2023-05-10T07:43:20;12.70;99.90
11855;DHT22;5987;53.140;8.904;2023-05-10T07:46:25;12.80;99.90
11855;DHT22;5987;53.140;8.904;2023-05-10T07:49:29;12.90;99.90
11855;DHT22;5987;53.140;8.904;2023-05-10T07:52:32;13.20;99.90
11855;DHT22;5987;53.140;8.904;2023-05-10T07:55:36;13.40;99.90
11855;DHT22;5987;53.140;8.904;2023-05-10T07:58:40;13.50;99.90
11855;DHT22;5987;53.140;8.904;2023-05-10T08:01:45;13.80;99.90
11855;DHT22;5987;53.140;8.904;2023-05-10T08:04:48;14.00;99.90
11855;DHT22;5987;53.140;8.904;2023-05-10T08:07:52;14.20;99.90
11855;DHT22;5987;53.140;8.904;2023-05-10T08:10:56;14.30;99.90
11855;DHT22;5987;53.140;8.904;2023-05-10T08:13:59;14.30;99.90
11855;DHT22;5987;53.140;8.904;2023-05-10T08:17:05;14.30;99.90
11855;DHT22;5987;53.140;8.904;2023-05-10T08:20:08;14.40;99.90
11855;DHT22;5987;53.140;8.904;2023-05-10T08:23:14;14.40;99.90
11855;DHT22;5987;53.140;8.904;2023-05-10T08:26:18;14.30;99.90
11855;DHT22;5987;53.140;8.904;2023-05-10T08:29:22;14.30;99.90
11855;DHT22;5987;53.140;8.904;2023-05-10T08:32:30;14.50;99.90
11855;DHT22;5987;53.140;8.904;2023-05-10T08:35:34;14.70;99.90
11855;DHT22;5987;53.140;8.904;2023-05-10T08:38:38;15.00;99.90
11855;DHT22;5987;53.140;8.904;2023-05-10T08:41:44;15.30;99.90
11855;DHT22;5987;53.140;8.904;2023-05-10T08:44:50;15.40;99.90
11855;DHT22;5987;53.140;8.904;2023-05-10T08:47:56;15.50;99.90
11855;DHT22;5987;53.140;8.904;2023-05-10T08:51:03;15.60;99.90
11855;DHT22;5987;53.140;8.904;2023-05-10T08:54:07;15.70;99.90
11855;DHT22;5987;53.140;8.904;2023-05-10T08:57:11;15.70;99.90
11855;DHT22;5987;53.140;8.904;2023-05-10T09:00:15;15.80;99.90
11855;DHT22;5987;53.140;8.904;2023-05-10T09:03:22;15.90;99.90
11855;DHT22;5987;53.140;8.904;2023-05-10T09:06:26;16.00;99.90
11855;DHT22;5987;53.140;8.904;2023-05-10T09:09:31;16.00;99.90
11855;DHT22;5987;53.140;8.904;2023-05-10T09:12:35;15.90;99.90
11855;DHT22;5987;53.140;8.904;2023-05-10T09:15:39;15.90;99.90
11855;DHT22;5987;53.140;8.904;2023-05-10T09:18:44;15.90;99.90
11855;DHT22;5987;53.140;8.904;2023-05-10T09:21:49;15.90;99.90
11855;DHT22;5987;53.140;8.904;2023-05-10T09:25:04;16.00;99.90
11855;DHT22;5987;53.140;8.904;2023-05-10T09:28:09;16.30;99.90
11855;DHT22;5987;53.140;8.904;2023-05-10T09:31:14;16.70;99.90
11855;DHT22;5987;53.140;8.904;2023-05-10T09:34:20;16.80;99.90
11855;DHT22;5987;53.140;8.904;2023-05-10T09:37:31;16.80;99.90
11855;DHT22;5987;53.140;8.904;2023-05-10T09:40:34;16.80;99.90
11855;DHT22;5987;53.140;8.904;2023-05-10T09:43:38;17.00;99.90
11855;DHT22;5987;53.140;8.904;2023-05-10T09:46:43;17.10;99.90
11855;DHT22;5987;53.140;8.904;2023-05-10T09:49:54;17.00;99.90
11855;DHT22;5987;53.140;8.904;2023-05-10T09:53:01;16.70;99.90
11855;DHT22;5987;53.140;8.904;2023-05-10T09:56:06;16.80;99.90
11855;DHT22;5987;53.140;8.904;2023-05-10T09:59:11;17.00;99.90
11855;DHT22;5987;53.140;8.904;2023-05-10T10:02:15;17.00;99.90
11855;DHT22;5987;53.140;8.904;2023-05-10T10:05:21;17.00;99.90
11855;DHT22;5987;53.140;8.904;2023-05-10T10:08:30;17.00;99.90
11855;DHT22;5987;53.140;8.904;2023-05-10T10:11:36;17.10;99.90
11855;DHT22;5987;53.140;8.904;2023-05-10T10:14:40;17.10;99.90
11855;DHT22;5987;53.140;8.904;2023-05-10T10:17:45;17.20;99.90
11855;DHT22;5987;53.140;8.904;2023-05-10T10:20:51;17.70;99.90
11855;DHT22;5987;53.140;8.904;2023-05-10T10:23:57;18.20;99.90
11855;DHT22;5987;53.140;8.904;2023-05-10T10:27:09;18.20;99.90
11855;DHT22;5987;53.140;8.904;2023-05-10T10:30:27;18.10;99.90
11855;DHT22;5987;53.140;8.904;2023-05-10T10:33:51;17.90;99.90
11855;DHT22;5987;53.140;8.904;2023-05-10T10:37:05;17.60;99.90
11855;DHT22;5987;53.140;8.904;2023-05-10T10:40:26;17.20;99.90
11855;DHT22;5987;53.140;8.904;2023-05-10T10:43:35;17.00;99.90
11855;DHT22;5987;53.140;8.904;2023-05-10T10:46:58;16.90;99.90
11855;DHT22;5987;53.140;8.904;2023-05-10T10:50:05;16.90;99.90
11855;DHT22;5987;53.140;8.904;2023-05-10T10:53:12;16.90;99.90
11855;DHT22;5987;53.140;8.904;2023-05-10T10:56:21;17.10;99.90
11855;DHT22;5987;53.140;8.904;2023-05-10T10:59:27;17.30;99.90
11855;DHT22;5987;53.140;8.904;2023-05-10T11:02:34;17.50;99.90
11855;DHT22;5987;53.140;8.904;2023-05-10T11:05:48;17.50;99.90
11855;DHT22;5987;53.140;8.904;2023-05-10T11:08:55;17.70;99.90
11855;DHT22;5987;53.140;8.904;2023-05-10T11:11:59;17.80;99.90
11855;DHT22;5987;53.140;8.904;2023-05-10T11:15:03;17.90;99.90
11855;DHT22;5987;53.140;8.904;2023-05-10T11:18:19;18.10;99.90
11855;DHT22;5987;53.140;8.904;2023-05-10T11:21:23;18.00;99.90
11855;DHT22;5987;53.140;8.904;2023-05-10T11:24:29;18.30;99.90
11855;DHT22;5987;53.140;8.904;2023-05-10T11:27:37;18.30;99.90
11855;DHT22;5987;53.140;8.904;2023-05-10T11:30:42;18.40;99.90
11855;DHT22;5987;53.140;8.904;2023-05-10T11:33:48;18.40;99.90
11855;DHT22;5987;53.140;8.904;2023-05-10T11:36:53;18.50;99.90
11855;DHT22;5987;53.140;8.904;2023-05-10T11:39:59;18.70;99.90
11855;DHT22;5987;53.140;8.904;2023-05-10T11:43:03;18.50;99.90
11855;DHT22;5987;53.140;8.904;2023-05-10T11:46:10;18.60;99.90
11855;DHT22;5987;53.140;8.904;2023-05-10T11:49:15;18.60;99.90
11855;DHT22;5987;53.140;8.904;2023-05-10T11:52:19;18.80;99.90
11855;DHT22;5987;53.140;8.904;2023-05-10T11:55:24;18.90;99.90
11855;DHT22;5987;53.140;8.904;2023-05-10T11:58:28;19.10;99.90
11855;DHT22;5987;53.140;8.904;2023-05-10T12:01:31;19.10;99.90
11855;DHT22;5987;53.140;8.904;2023-05-10T12:04:35;19.10;99.90
11855;DHT22;5987;53.140;8.904;2023-05-10T12:07:39;18.80;99.90
11855;DHT22;5987;53.140;8.904;2023-05-10T12:10:44;18.60;99.90
11855;DHT22;5987;53.140;8.904;2023-05-10T12:13:48;18.20;99.90
11855;DHT22;5987;53.140;8.904;2023-05-10T12:16:51;17.90;99.90
11855;DHT22;5987;53.140;8.904;2023-05-10T12:19:59;17.60;99.90
11855;DHT22;5987;53.140;8.904;2023-05-10T12:23:16;17.20;99.90
11855;DHT22;5987;53.140;8.904;2023-05-10T12:26:23;16.90;99.90
11855;DHT22;5987;53.140;8.904;2023-05-10T12:29:30;17.00;99.90
11855;DHT22;5987;53.140;8.904;2023-05-10T12:32:40;17.20;99.90
11855;DHT22;5987;53.140;8.904;2023-05-10T12:35:46;17.40;99.90
11855;DHT22;5987;53.140;8.904;2023-05-10T12:38:50;17.50;99.90
11855;DHT22;5987;53.140;8.904;2023-05-10T12:41:55;17.50;99.90
11855;DHT22;5987;53.140;8.904;2023-05-10T12:44:59;17.60;99.90
11855;DHT22;5987;53.140;8.904;2023-05-10T12:48:03;17.50;99.90
11855;DHT22;5987;53.140;8.904;2023-05-10T12:51:07;17.40;99.90
11855;DHT22;5987;53.140;8.904;2023-05-10T12:54:13;17.20;99.90
11855;DHT22;5987;53.140;8.904;2023-05-10T12:57:20;17.10;99.90
11855;DHT22;5987;53.140;8.904;2023-05-10T13:00:24;16.90;99.90
11855;DHT22;5987;53.140;8.904;2023-05-10T13:03:28;16.90;99.90
11855;DHT22;5987;53.140;8.904;2023-05-10T13:06:32;17.10;99.90
11855;DHT22;5987;53.140;8.904;2023-05-10T13:09:36;17.30;99.90
11855;DHT22;5987;53.140;8.904;2023-05-10T13:12:41;17.10;99.90
11855;DHT22;5987;53.140;8.904;2023-05-10T13:15:45;17.00;99.90
11855;DHT22;5987;53.140;8.904;2023-05-10T13:18:48;17.10;99.90
11855;DHT22;5987;53.140;8.904;2023-05-10T13:21:53;17.10;99.90
11855;DHT22;5987;53.140;8.904;2023-05-10T13:24:56;17.00;99.90
11855;DHT22;5987;53.140;8.904;2023-05-10T13:28:01;16.70;99.90
11855;DHT22;5987;53.140;8.904;2023-05-10T13:31:05;16.60;99.90
11855;DHT22;5987;53.140;8.904;2023-05-10T13:34:09;16.50;99.90
11855;DHT22;5987;53.140;8.904;2023-05-10T13:37:12;16.50;99.90
11855;DHT22;5987;53.140;8.904;2023-05-10T13:40:16;16.50;99.90
11855;DHT22;5987;53.140;8.904;2023-05-10T13:43:21;16.80;99.90
11855;DHT22;5987;53.140;8.904;2023-05-10T13:46:25;17.00;99.90
11855;DHT22;5987;53.140;8.904;2023-05-10T13:49:29;17.00;99.90
11855;DHT22;5987;53.140;8.904;2023-05-10T13:52:32;16.90;99.90
11855;DHT22;5987;53.140;8.904;2023-05-10T13:55:36;16.70;99.90
11855;DHT22;5987;53.140;8.904;2023-05-10T13:58:41;16.60;99.90
11855;DHT22;5987;53.140;8.904;2023-05-10T14:01:44;16.60;99.90
11855;DHT22;5987;53.140;8.904;2023-05-10T14:04:48;16.50;99.90
11855;DHT22;5987;53.140;8.904;2023-05-10T14:07:52;16.60;99.90
11855;DHT22;5987;53.140;8.904;2023-05-10T14:10:55;16.50;99.90
11855;DHT22;5987;53.140;8.904;2023-05-10T14:14:00;16.50;99.90
11855;DHT22;5987;53.140;8.904;2023-05-10T14:17:04;16.70;99.90
11855;DHT22;5987;53.140;8.904;2023-05-10T14:20:10;16.70;99.90
11855;DHT22;5987;53.140;8.904;2023-05-10T14:23:14;16.70;99.90
11855;DHT22;5987;53.140;8.904;2023-05-10T14:26:18;16.90;99.90
11855;DHT22;5987;53.140;8.904;2023-05-10T14:29:24;16.80;99.90
11855;DHT22;5987;53.140;8.904;2023-05-10T14:32:27;17.10;99.90
11855;DHT22;5987;53.140;8.904;2023-05-10T14:35:31;17.00;99.90
11855;DHT22;5987;53.140;8.904;2023-05-10T14:38:34;17.00;99.90
11855;DHT22;5987;53.140;8.904;2023-05-10T14:41:38;17.10;99.90
11855;DHT22;5987;53.140;8.904;2023-05-10T14:44:44;17.00;99.90
11855;DHT22;5987;53.140;8.904;2023-05-10T14:47:47;17.00;99.90
11855;DHT22;5987;53.140;8.904;2023-05-10T14:50:51;17.20;99.90
11855;DHT22;5987;53.140;8.904;2023-05-10T14:53:55;17.30;99.90
11855;DHT22;5987;53.140;8.904;2023-05-10T14:56:59;17.50;99.90
11855;DHT22;5987;53.140;8.904;2023-05-10T15:00:05;17.40;99.90
11855;DHT22;5987;53.140;8.904;2023-05-10T15:03:10;17.90;99.90
11855;DHT22;5987;53.140;8.904;2023-05-10T15:06:14;18.20;99.90
11855;DHT22;5987;53.140;8.904;2023-05-10T15:09:18;17.80;99.90
11855;DHT22;5987;53.140;8.904;2023-05-10T15:12:22;17.70;99.90
11855;DHT22;5987;53.140;8.904;2023-05-10T15:15:29;17.70;99.90
11855;DHT22;5987;53.140;8.904;2023-05-10T15:18:33;17.70;99.90
11855;DHT22;5987;53.140;8.904;2023-05-10T15:21:36;17.70;99.90
11855;DHT22;5987;53.140;8.904;2023-05-10T15:24:40;17.50;99.90
11855;DHT22;5987;53.140;8.904;2023-05-10T15:27:44;17.40;99.90
11855;DHT22;5987;53.140;8.904;2023-05-10T15:30:49;17.50;99.90
11855;DHT22;5987;53.140;8.904;2023-05-10T15:33:57;17.70;99.90
11855;DHT22;5987;53.140;8.904;2023-05-10T15:37:01;17.70;99.90
11855;DHT22;5987;53.140;8.904;2023-05-10T15:40:06;17.60;99.90
11855;DHT22;5987;53.140;8.904;2023-05-10T15:43:10;17.40;99.90
11855;DHT22;5987;53.140;8.904;2023-05-10T15:46:15;17.20;99.90
11855;DHT22;5987;53.140;8.904;2023-05-10T15:49:18;17.00;99.90
11855;DHT22;5987;53.140;8.904;2023-05-10T15:52:22;16.90;99.90
11855;DHT22;5987;53.140;8.904;2023-05-10T15:55:26;16.90;99.90
11855;DHT22;5987;53.140;8.904;2023-05-10T15:58:29;16.90;99.90
11855;DHT22;5987;53.140;8.904;2023-05-10T16:01:35;16.80;99.90
11855;DHT22;5987;53.140;8.904;2023-05-10T16:04:38;16.60;99.90
11855;DHT22;5987;53.140;8.904;2023-05-10T16:07:42;16.20;99.90
11855;DHT22;5987;53.140;8.904;2023-05-10T16:10:45;16.00;99.90
11855;DHT22;5987;53.140;8.904;2023-05-10T16:13:49;15.90;99.90
11855;DHT22;5987;53.140;8.904;2023-05-10T16:16:55;15.70;99.90
11855;DHT22;5987;53.140;8.904;2023-05-10T16:19:58;15.60;99.90
11855;DHT22;5987;53.140;8.904;2023-05-10T16:23:03;15.40;99.90
11855;DHT22;5987;53.140;8.904;2023-05-10T16:26:08;15.30;99.90
11855;DHT22;5987;53.140;8.904;2023-05-10T16:29:11;15.30;99.90
11855;DHT22;5987;53.140;8.904;2023-05-10T16:32:16;15.50;99.90
11855;DHT22;5987;53.140;8.904;2023-05-10T16:35:20;15.60;99.90
11855;DHT22;5987;53.140;8.904;2023-05-10T16:38:24;15.70;99.90
11855;DHT22;5987;53.140;8.904;2023-05-10T16:41:28;16.00;99.90
11855;DHT22;5987;53.140;8.904;2023-05-10T16:44:34;16.20;99.90
11855;DHT22;5987;53.140;8.904;2023-05-10T16:47:39;16.40;99.90
11855;DHT22;5987;53.140;8.904;2023-05-10T16:50:44;16.50;99.90
11855;DHT22;5987;53.140;8.904;2023-05-10T16:53:47;16.60;99.90
11855;DHT22;5987;53.140;8.904;2023-05-10T16:56:51;16.60;99.90
11855;DHT22;5987;53.140;8.904;2023-05-10T16:59:55;16.70;99.90
11855;DHT22;5987;53.140;8.904;2023-05-10T17:03:00;16.70;99.90
11855;DHT22;5987;53.140;8.904;2023-05-10T17:06:04;16.90;99.90
11855;DHT22;5987;53.140;8.904;2023-05-10T17:09:08;17.00;99.90
11855;DHT22;5987;53.140;8.904;2023-05-10T17:12:12;16.90;99.90
11855;DHT22;5987;53.140;8.904;2023-05-10T17:15:16;17.10;99.90
11855;DHT22;5987;53.140;8.904;2023-05-10T17:18:23;17.00;99.90
11855;DHT22;5987;53.140;8.904;2023-05-10T17:21:29;16.90;99.90
11855;DHT22;5987;53.140;8.904;2023-05-10T17:24:34;16.90;99.90
11855;DHT22;5987;53.140;8.904;2023-05-10T17:27:37;17.00;99.90
11855;DHT22;5987;53.140;8.904;2023-05-10T17:30:41;17.00;99.90
11855;DHT22;5987;53.140;8.904;2023-05-10T17:33:46;16.90;99.90
11855;DHT22;5987;53.140;8.904;2023-05-10T17:36:50;16.80;99.90
11855;DHT22;5987;53.140;8.904;2023-05-10T17:39:53;16.80;99.90
11855;DHT22;5987;53.140;8.904;2023-05-10T17:42:57;16.80;99.90
11855;DHT22;5987;53.140;8.904;2023-05-10T17:46:00;16.80;99.90
11855;DHT22;5987;53.140;8.904;2023-05-10T17:49:06;16.60;99.90
11855;DHT22;5987;53.140;8.904;2023-05-10T17:52:10;16.40;99.90
11855;DHT22;5987;53.140;8.904;2023-05-10T17:55:13;16.30;99.90
11855;DHT22;5987;53.140;8.904;2023-05-10T17:58:17;16.30;99.90
11855;DHT22;5987;53.140;8.904;2023-05-10T18:01:21;16.20;99.90
11855;DHT22;5987;53.140;8.904;2023-05-10T18:04:26;16.20;99.90
11855;DHT22;5987;53.140;8.904;2023-05-10T18:07:30;16.20;99.90
11855;DHT22;5987;53.140;8.904;2023-05-10T18:10:33;16.20;99.90
11855;DHT22;5987;53.140;8.904;2023-05-10T18:13:42;16.20;99.90
11855;DHT22;5987;53.140;8.904;2023-05-10T18:16:46;16.30;99.90
11855;DHT22;5987;53.140;8.904;2023-05-10T18:19:51;16.30;99.90
11855;DHT22;5987;53.140;8.904;2023-05-10T18:22:56;16.30;99.90
11855;DHT22;5987;53.140;8.904;2023-05-10T18:25:59;16.20;99.90
11855;DHT22;5987;53.140;8.904;2023-05-10T18:29:04;16.10;99.90
11855;DHT22;5987;53.140;8.904;2023-05-10T18:32:08;16.20;99.90
11855;DHT22;5987;53.140;8.904;2023-05-10T18:35:13;16.20;99.90
11855;DHT22;5987;53.140;8.904;2023-05-10T18:38:17;16.10;99.90
11855;DHT22;5987;53.140;8.904;2023-05-10T18:41:21;16.00;99.90
11855;DHT22;5987;53.140;8.904;2023-05-10T18:44:27;15.90;99.90
11855;DHT22;5987;53.140;8.904;2023-05-10T18:47:31;15.80;99.90
11855;DHT22;5987;53.140;8.904;2023-05-10T18:50:36;15.80;99.90
11855;DHT22;5987;53.140;8.904;2023-05-10T18:53:39;15.80;99.90
11855;DHT22;5987;53.140;8.904;2023-05-10T18:56:43;15.80;99.90
11855;DHT22;5987;53.140;8.904;2023-05-10T18:59:47;15.70;99.90
11855;DHT22;5987;53.140;8.904;2023-05-10T19:02:51;15.60;99.90
11855;DHT22;5987;53.140;8.904;2023-05-10T19:05:57;15.60;99.90
11855;DHT22;5987;53.140;8.904;2023-05-10T19:09:01;15.50;99.90
11855;DHT22;5987;53.140;8.904;2023-05-10T19:12:05;15.40;99.90
11855;DHT22;5987;53.140;8.904;2023-05-10T19:15:25;15.30;99.90
11855;DHT22;5987;53.140;8.904;2023-05-10T19:18:29;15.30;99.90
11855;DHT22;5987;53.140;8.904;2023-05-10T19:21:34;15.30;99.90
11855;DHT22;5987;53.140;8.904;2023-05-10T19:24:38;15.30;99.90
11855;DHT22;5987;53.140;8.904;2023-05-10T19:27:42;15.20;99.90
11855;DHT22;5987;53.140;8.904;2023-05-10T19:30:46;15.20;99.90
11855;DHT22;5987;53.140;8.904;2023-05-10T19:33:50;15.20;99.90
11855;DHT22;5987;53.140;8.904;2023-05-10T19:36:55;15.20;99.90
11855;DHT22;5987;53.140;8.904;2023-05-10T19:39:59;15.10;99.90
11855;DHT22;5987;53.140;8.904;2023-05-10T19:43:03;15.10;99.90
11855;DHT22;5987;53.140;8.904;2023-05-10T19:46:07;15.20;99.90
11855;DHT22;5987;53.140;8.904;2023-05-10T19:49:11;15.00;99.90
11855;DHT22;5987;53.140;8.904;2023-05-10T19:52:17;15.00;99.90
11855;DHT22;5987;53.140;8.904;2023-05-10T19:55:26;15.00;99.90